首页
METAR-TAF:

METAR-TAF

机场 :

墨西哥城贝尼托·胡亚雷斯国际机场

墨西哥城, 墨西哥

纬度: 19-26N, 经度: 099-06W, 海拔: 2238米

当前天气观测

该预报发布于40分钟前的16:50 UTC
风速13节,风向东转东北
温度 19°C
湿度 56%
气压 1029 hPa
能見度: 19.3公里
散云层高于1500英尺
多云层高于2000英尺
多云层高于8000英尺
阴天层高于22000英尺

METAR: MMMX 081650Z 06013KT 12SM SCT015 BKN020 BKN080 OVC220 19/10 A3038 NOSIG RMK 8/877 MDT CU S BINOVC

时间: 12:30 (17:30 UTC)

预报

该预报发布于7小时和16分钟前的10:14 UTC
预报有效从08日的 12点(UTC)到 09日的 18点(UTC)
风速5节,风向北转东北
能見度: 9.7公里
多云层高于2000英尺
多云层高于7000英尺
从 08日的 1800点(UTC)
风速15节,风向
能見度: 9.7公里
散云层高于2000英尺
多云层高于9000英尺
多云层高于20000英尺
短暂存在
从 08日的 22点(UTC)到 09日的 02点(UTC)
能見度: 6.4公里
多云层高于2000英尺, 积雨云.
雷暴, 雨
从 09日的 0200点(UTC)
风速10节,风向
能見度: 9.7公里
多云层高于1500英尺
多云层高于9000英尺
多云层高于20000英尺
短暂存在
从 09日的 02点(UTC)到 09日的 06点(UTC)
能見度: 9.7公里
多云层高于1500英尺, 积雨云.
雷暴, 雨
从 09日的 0900点(UTC)
风速节,风向
能見度: 9.7公里
散云层高于2000英尺
多云层高于8000英尺
从 09日的 1800点(UTC)
风速10节,风向东南
能見度: 10公里
多云层高于2000英尺

TAF: MMMX 081014Z 0812/0918 03005KT 6SM HZ BKN020 BKN070 TX25/0821Z TN15/0812Z FM081800 08015KT 6SM HZ SCT020 BKN090 BKN200 TEMPO 0822/0902 4SM TSRA BKN020CB FM090200 08010KT 6SM HZ BKN015 BKN090 BKN200 TEMPO 0902/0906 6SM TSRA BKN015CB FM090900 00000KT 6SM HZ SCT020 BKN080 FM091800 13010KT P6SM BKN020

超过4000个机场的气象观测和天气预报(METAR&TAF报告)。

可查询的气象台以黄色和红色小点在地图上表示。

将鼠标移到小点上方,可查看气象台名称。

然后点击查看天气观测和预报。

如需切换地图:点击带黑十字的绿色按钮放大地图;点击带横线的绿色按钮缩小地图;或者点击绿色箭头查看邻近地区的地图。


METAR-TAF: